Time;durP1;ratioP1;P1;durP2;ratioP2;P2;SDS_P1;SDS_P2;PMS_P1;PMS_P2;Temp;Humidity;BMP_temperature;BMP_pressure;BME280_temperature;BME280_humidity;BME280_pressure;Samples;Min_cycle;Max_cycle;Signal;HPM_P1;HPM_P2
2022/01/31 00:01:13;;;;;;;24.15;4.72;;;;;;;4.92;100.00;101687.84;5288703;28;20108;-80
2022/01/31 00:03:44;;;;;;;20.85;5.10;;;;;;;4.89;100.00;101680.09;5291893;28;20016;-80
2022/01/31 00:06:14;;;;;;;19.23;4.13;;;;;;;4.93;100.00;101667.44;5277394;28;20016;-79
2022/01/31 00:08:45;;;;;;;33.97;5.13;;;;;;;4.93;100.00;101640.84;5295213;28;20075;-81
2022/01/31 00:11:16;;;;;;;18.42;3.90;;;;;;;4.94;100.00;101647.84;5296716;28;20027;-80
2022/01/31 00:13:59;;;;;;;16.40;3.58;;;;;;;4.98;100.00;101611.25;5294227;28;20078;-79
2022/01/31 00:16:32;;;;;;;20.92;3.78;;;;;;;5.01;100.00;101619.00;5296209;28;20341;-81
2022/01/31 00:19:03;;;;;;;33.78;5.65;;;;;;;4.88;100.00;101605.75;5296535;28;20031;-80
2022/01/31 00:21:33;;;;;;;16.75;4.03;;;;;;;5.15;100.00;101605.53;5295667;28;20026;-79
2022/01/31 00:24:04;;;;;;;18.10;4.25;;;;;;;5.16;100.00;101594.78;5284488;28;20097;-79
2022/01/31 00:26:35;;;;;;;16.70;4.07;;;;;;;5.20;100.00;101582.97;5294818;28;20019;-80
2022/01/31 00:29:05;;;;;;;24.50;4.05;;;;;;;5.20;100.00;101571.47;5278355;28;20028;-80
2022/01/31 00:31:35;;;;;;;18.52;4.05;;;;;;;5.18;100.00;101552.13;5291079;28;20094;-82
2022/01/31 00:34:06;;;;;;;15.40;3.42;;;;;;;5.24;100.00;101548.16;5294343;28;20036;-81
2022/01/31 00:36:37;;;;;;;18.77;3.67;;;;;;;5.31;100.00;101539.59;5293017;28;20467;-80
2022/01/31 00:39:07;;;;;;;24.08;3.78;;;;;;;5.26;100.00;101528.44;5294209;28;20024;-79
2022/01/31 00:41:38;;;;;;;29.00;4.03;;;;;;;5.22;100.00;101529.66;5292342;28;20571;-80
2022/01/31 00:44:26;;;;;;;16.67;3.53;;;;;;;5.27;100.00;101506.22;5293934;28;20095;-80
2022/01/31 00:47:02;;;;;;;37.00;7.07;;;;;;;5.28;100.00;101497.28;5295898;28;20020;-79
2022/01/31 00:52:04;;;;;;;21.38;4.07;;;;;;;5.37;100.00;101475.28;5295745;28;20136;-79
2022/01/31 00:54:34;;;;;;;14.95;3.85;;;;;;;5.27;100.00;101457.47;5296775;28;20145;-79
2022/01/31 00:57:05;;;;;;;15.95;3.85;;;;;;;5.29;100.00;101452.88;5296200;28;20015;-79
2022/01/31 00:59:35;;;;;;;21.67;4.05;;;;;;;5.27;100.00;101437.06;5297770;28;20475;-79
2022/01/31 01:02:06;;;;;;;24.05;3.78;;;;;;;5.25;100.00;101436.31;5297329;28;20032;-79
2022/01/31 01:04:36;;;;;;;19.63;3.92;;;;;;;5.22;100.00;101436.56;5296265;28;20068;-79
2022/01/31 01:07:07;;;;;;;17.85;4.65;;;;;;;5.16;100.00;101423.69;5296334;28;20073;-79
2022/01/31 01:09:37;;;;;;;26.33;4.40;;;;;;;5.04;100.00;101414.84;5295555;28;20019;-79
2022/01/31 01:12:09;;;;;;;37.45;5.53;;;;;;;5.05;100.00;101399.75;5295494;28;20055;-79
2022/01/31 01:14:40;;;;;;;32.58;4.80;;;;;;;5.06;100.00;101418.22;5295616;28;20020;-80
2022/01/31 01:17:11;;;;;;;35.00;6.88;;;;;;;5.03;100.00;101404.34;5295468;28;20023;-80
2022/01/31 01:19:43;;;;;;;21.58;5.05;;;;;;;5.01;100.00;101392.94;5287428;28;20052;-79
2022/01/31 01:22:13;;;;;;;27.25;4.75;;;;;;;4.96;100.00;101382.66;5286233;28;20184;-79
2022/01/31 01:24:44;;;;;;;23.83;4.53;;;;;;;4.92;100.00;101374.09;5272971;28;20123;-79
2022/01/31 01:27:18;;;;;;;17.13;3.97;;;;;;;4.81;100.00;101373.19;5286912;28;20034;-82
2022/01/31 01:29:49;;;;;;;23.15;4.40;;;;;;;4.79;100.00;101360.03;5289877;28;20047;-81
2022/01/31 01:32:20;;;;;;;23.27;5.03;;;;;;;4.75;100.00;101339.13;5289955;28;20027;-79
2022/01/31 01:34:50;;;;;;;26.67;4.25;;;;;;;4.66;100.00;101335.34;5253957;28;20034;-79
2022/01/31 01:37:21;;;;;;;19.90;4.32;;;;;;;4.64;100.00;101323.97;5289302;28;20478;-78
2022/01/31 01:39:51;;;;;;;34.92;5.05;;;;;;;4.60;100.00;101303.91;5289696;28;20410;-81
2022/01/31 01:42:21;;;;;;;32.95;5.07;;;;;;;4.60;100.00;101309.22;5271632;28;20455;-78
2022/01/31 01:44:52;;;;;;;23.70;4.63;;;;;;;4.59;100.00;101300.41;5289995;28;20042;-79
2022/01/31 01:47:24;;;;;;;30.80;5.30;;;;;;;4.56;100.00;101303.28;5289694;28;20015;-79
2022/01/31 01:49:54;;;;;;;28.27;5.88;;;;;;;4.59;100.00;101270.34;5289002;28;20426;-80
2022/01/31 01:52:25;;;;;;;23.33;4.38;;;;;;;4.59;100.00;101263.22;5288860;28;20069;-79
2022/01/31 01:54:56;;;;;;;21.70;3.60;;;;;;;4.63;100.00;101271.81;5270232;28;20026;-78
2022/01/31 01:57:27;;;;;;;28.23;6.32;;;;;;;4.66;100.00;101277.72;5287063;28;20479;-78
2022/01/31 01:59:58;;;;;;;20.63;4.47;;;;;;;4.64;100.00;101261.03;5270440;28;20039;-80
2022/01/31 02:02:29;;;;;;;26.70;5.18;;;;;;;4.68;100.00;101259.00;5286883;28;20479;-82
2022/01/31 02:05:00;;;;;;;24.10;4.97;;;;;;;4.66;100.00;101256.44;5287608;28;20024;-80
2022/01/31 02:07:30;;;;;;;25.95;4.65;;;;;;;4.71;100.00;101261.41;5288337;28;20110;-80
2022/01/31 02:10:04;;;;;;;21.58;5.95;;;;;;;4.73;100.00;101263.97;5270580;28;20026;-80
2022/01/31 02:12:54;;;;;;;23.08;4.50;;;;;;;4.82;100.00;101249.94;5287933;28;20048;-79
2022/01/31 02:15:26;;;;;;;27.48;5.25;;;;;;;4.88;100.00;101245.00;5286803;28;20023;-80
2022/01/31 02:17:56;;;;;;;17.33;4.53;;;;;;;4.88;100.00;101238.84;5286971;28;20103;-80
2022/01/31 02:20:28;;;;;;;16.30;4.00;;;;;;;4.90;100.00;101231.59;5291775;28;20106;-79
2022/01/31 02:23:21;;;;;;;25.48;5.78;;;;;;;4.90;100.00;101229.78;5273820;28;20099;-80
2022/01/31 02:25:53;;;;;;;15.82;4.07;;;;;;;4.91;100.00;101223.50;5284635;28;20031;-80
2022/01/31 02:28:27;;;;;;;22.35;4.15;;;;;;;4.95;100.00;101229.41;5293971;28;20036;-81
2022/01/31 02:30:58;;;;;;;13.55;3.78;;;;;;;4.94;100.00;101227.72;5290460;28;20020;-80
2022/01/31 02:33:29;;;;;;;21.10;4.20;;;;;;;4.97;100.00;101221.31;5275700;28;20019;-81
2022/01/31 02:36:02;;;;;;;13.30;4.22;;;;;;;4.96;100.00;101211.66;5275003;28;20026;-81
2022/01/31 02:38:33;;;;;;;14.98;4.50;;;;;;;4.96;100.00;101212.50;5276190;28;20035;-82
2022/01/31 02:41:05;;;;;;;16.85;4.15;;;;;;;5.00;100.00;101197.16;5294074;28;20071;-80
2022/01/31 02:43:36;;;;;;;20.38;4.22;;;;;;;5.14;100.00;101191.59;5276944;28;20035;-81
2022/01/31 02:46:07;;;;;;;11.00;3.63;;;;;;;5.18;100.00;101198.34;5294711;28;20034;-81
2022/01/31 02:48:37;;;;;;;19.45;3.97;;;;;;;5.18;100.00;101203.69;5277191;28;20038;-81
2022/01/31 02:51:10;;;;;;;11.45;3.88;;;;;;;5.17;100.00;101193.97;5276539;28;20028;-81
2022/01/31 02:53:51;;;;;;;10.85;3.47;;;;;;;5.21;100.00;101206.06;5278106;28;20030;-81
2022/01/31 02:56:29;;;;;;;21.13;4.57;;;;;;;5.21;100.00;101187.44;5295022;28;20027;-81
2022/01/31 02:59:07;;;;;;;15.95;3.70;;;;;;;5.23;100.00;101190.84;5295744;28;20035;-80
2022/01/31 03:01:39;;;;;;;15.45;4.30;;;;;;;5.28;100.00;101199.31;5295552;28;20083;-81
2022/01/31 03:04:13;;;;;;;15.32;4.53;;;;;;;5.31;100.00;101201.69;5282155;28;20069;-81
2022/01/31 03:06:49;;;;;;;17.85;4.40;;;;;;;5.32;100.00;101192.78;5295103;28;20028;-80
2022/01/31 03:09:19;;;;;;;16.48;5.25;;;;;;;5.36;100.00;101196.00;5276968;28;20042;-81
2022/01/31 03:11:50;;;;;;;23.30;8.18;;;;;;;5.39;100.00;101195.78;5278672;28;20046;-81
2022/01/31 03:14:21;;;;;;;15.93;4.47;;;;;;;5.43;100.00;101187.41;5279027;28;20016;-81
2022/01/31 03:16:52;;;;;;;18.48;4.55;;;;;;;5.52;100.00;101176.97;5296965;28;20034;-81
2022/01/31 03:19:23;;;;;;;25.30;6.93;;;;;;;5.56;100.00;101173.94;5297008;28;20163;-81
2022/01/31 03:21:53;;;;;;;17.73;7.03;;;;;;;5.60;100.00;101167.41;5296253;28;20027;-81
2022/01/31 03:24:23;;;;;;;19.92;5.85;;;;;;;5.62;100.00;101184.13;5283027;28;20024;-81
2022/01/31 03:26:54;;;;;;;15.90;6.75;;;;;;;5.66;100.00;101188.19;5282326;28;20080;-81
2022/01/31 03:29:24;;;;;;;18.75;5.97;;;;;;;5.70;100.00;101171.00;5278333;28;20046;-81
2022/01/31 03:31:55;;;;;;;22.23;9.82;;;;;;;5.76;100.00;101172.31;5290882;28;20482;-81
2022/01/31 03:34:26;;;;;;;25.17;7.45;;;;;;;5.86;100.00;101167.06;5291506;28;20058;-81
2022/01/31 03:36:56;;;;;;;16.98;4.55;;;;;;;5.89;100.00;101156.16;5291486;28;20027;-81
2022/01/31 03:39:27;;;;;;;14.52;4.25;;;;;;;5.93;100.00;101170.94;5291130;28;20031;-81
2022/01/31 03:41:57;;;;;;;17.85;4.05;;;;;;;6.01;100.00;101170.28;5273870;28;20080;-81
2022/01/31 03:44:29;;;;;;;11.95;3.15;;;;;;;6.04;100.00;101160.22;5291927;28;20028;-81
2022/01/31 03:47:00;;;;;;;23.65;4.68;;;;;;;6.12;100.00;101151.56;5292169;28;20012;-80
2022/01/31 03:49:31;;;;;;;16.95;3.10;;;;;;;6.15;100.00;101154.00;5291934;28;20019;-81
2022/01/31 03:52:01;;;;;;;18.02;2.70;;;;;;;6.21;100.00;101151.66;5257195;28;20070;-81
2022/01/31 03:54:32;;;;;;;37.55;16.42;;;;;;;6.18;100.00;101141.25;5292744;28;20104;-81
2022/01/31 03:57:03;;;;;;;14.65;3.08;;;;;;;6.27;100.00;101157.44;5272530;28;20624;-80
2022/01/31 03:59:34;;;;;;;18.67;3.53;;;;;;;6.36;100.00;101146.81;5290749;28;20073;-80
2022/01/31 04:02:06;;;;;;;24.58;5.00;;;;;;;6.34;100.00;101167.44;5271670;28;20477;-80
2022/01/31 04:04:37;;;;;;;24.15;3.65;;;;;;;6.38;100.00;101160.03;5287495;28;20020;-80
2022/01/31 04:07:07;;;;;;;13.27;2.55;;;;;;;6.36;100.00;101154.81;5269969;28;20509;-80
2022/01/31 04:09:38;;;;;;;20.88;4.28;;;;;;;6.38;100.00;101155.56;5269288;28;20347;-80
2022/01/31 04:12:09;;;;;;;23.38;3.03;;;;;;;6.36;100.00;101159.31;5287734;28;20032;-80
2022/01/31 04:14:39;;;;;;;13.10;2.92;;;;;;;6.33;100.00;101152.44;5270362;28;20036;-80
2022/01/31 04:17:10;;;;;;;13.15;2.20;;;;;;;6.33;100.00;101156.94;5288434;28;20030;-80
2022/01/31 04:19:41;;;;;;;33.60;7.53;;;;;;;6.31;100.00;101157.03;5288284;28;20028;-80
2022/01/31 04:22:15;;;;;;;13.65;2.40;;;;;;;6.25;100.00;101154.06;5270163;28;20038;-80
2022/01/31 04:24:52;;;;;;;20.55;4.07;;;;;;;6.28;100.00;101152.00;5274755;28;20019;-80
2022/01/31 04:27:27;;;;;;;14.82;2.80;;;;;;;6.25;100.00;101164.72;5288967;28;20089;-80
2022/01/31 04:29:58;;;;;;;18.90;3.38;;;;;;;6.16;100.00;101158.34;5288617;28;20035;-80
2022/01/31 04:32:29;;;;;;;13.98;1.85;;;;;;;6.09;100.00;101146.53;5284656;28;20027;-80
2022/01/31 04:34:59;;;;;;;16.17;4.25;;;;;;;6.05;100.00;101161.91;5288366;28;20045;-80
2022/01/31 04:37:30;;;;;;;34.38;15.95;;;;;;;6.05;100.00;101161.06;5270055;28;20065;-80
2022/01/31 04:40:00;;;;;;;10.30;2.08;;;;;;;6.05;100.00;101151.25;5270454;28;20069;-81
2022/01/31 04:42:31;;;;;;;17.85;2.10;;;;;;;6.09;100.00;101159.84;5287101;28;20027;-80
2022/01/31 04:45:03;;;;;;;10.45;1.77;;;;;;;6.15;100.00;101157.50;5270203;28;20023;-80
2022/01/31 04:47:34;;;;;;;12.07;2.25;;;;;;;6.17;100.00;101158.19;5288422;28;20027;-80
2022/01/31 04:50:05;;;;;;;22.38;3.38;;;;;;;6.14;100.00;101160.31;5288454;28;20016;-80
2022/01/31 04:52:38;;;;;;;13.60;1.92;;;;;;;6.16;100.00;101147.69;5288714;28;20490;-80
2022/01/31 04:55:10;;;;;;;20.65;3.33;;;;;;;6.15;100.00;101148.66;5293678;28;20117;-80
2022/01/31 04:57:42;;;;;;;11.55;1.77;;;;;;;6.16;100.00;101145.88;5290518;28;20509;-80
2022/01/31 05:00:13;;;;;;;18.77;2.30;;;;;;;6.12;100.00;101141.75;5290383;28;20024;-80
2022/01/31 05:02:43;;;;;;;18.67;2.50;;;;;;;6.15;100.00;101152.16;5263579;28;20028;-80
2022/01/31 05:05:14;;;;;;;10.32;1.77;;;;;;;6.23;100.00;101143.53;5251696;28;20154;-80
2022/01/31 05:07:44;;;;;;;8.48;2.10;;;;;;;6.23;100.00;101144.38;5250415;28;20012;-80
2022/01/31 05:10:15;;;;;;;21.83;2.90;;;;;;;6.28;100.00;101132.50;5249639;28;20050;-80
2022/01/31 05:12:45;;;;;;;9.65;1.73;;;;;;;6.27;100.00;101138.78;5248822;28;20399;-80
2022/01/31 05:15:16;;;;;;;20.45;2.50;;;;;;;6.30;100.00;101134.03;5266515;28;20020;-80
2022/01/31 05:17:46;;;;;;;11.20;1.55;;;;;;;6.31;100.00;101141.03;5248734;28;20024;-80
2022/01/31 05:20:17;;;;;;;19.38;2.03;;;;;;;6.34;100.00;101139.97;5266629;28;20114;-80
2022/01/31 05:22:47;;;;;;;12.90;2.40;;;;;;;6.31;100.00;101142.88;5248588;28;20085;-80
2022/01/31 05:25:18;;;;;;;12.57;2.40;;;;;;;6.33;100.00;101138.28;5262239;28;20427;-80
2022/01/31 05:27:48;;;;;;;17.30;3.47;;;;;;;6.31;100.00;101143.72;5287914;28;20362;-80
2022/01/31 05:30:20;;;;;;;13.52;2.90;;;;;;;6.34;100.00;101138.13;5270124;28;20496;-80
2022/01/31 05:32:51;;;;;;;9.98;1.30;;;;;;;6.35;100.00;101131.81;5265315;28;20106;-80
2022/01/31 05:35:21;;;;;;;10.95;2.58;;;;;;;6.42;100.00;101138.28;5286889;28;20562;-81
2022/01/31 05:37:52;;;;;;;19.20;3.88;;;;;;;6.40;100.00;101131.44;5288996;28;20035;-80
2022/01/31 05:40:23;;;;;;;11.90;2.75;;;;;;;6.38;100.00;101130.72;5287260;28;20490;-80
2022/01/31 05:42:53;;;;;;;22.85;2.13;;;;;;;6.35;100.00;101110.50;5286754;28;20035;-80
2022/01/31 05:45:24;;;;;;;13.65;1.75;;;;;;;6.38;100.00;101126.25;5286487;28;20023;-80
2022/01/31 05:47:54;;;;;;;19.92;2.70;;;;;;;6.40;100.00;101124.28;5286960;28;20059;-80
2022/01/31 05:50:25;;;;;;;13.75;1.83;;;;;;;6.39;100.00;101117.25;5252072;28;20019;-80
2022/01/31 05:52:55;;;;;;;11.57;2.40;;;;;;;6.44;100.00;101122.19;5269335;28;20534;-80
2022/01/31 05:55:26;;;;;;;11.82;2.13;;;;;;;6.42;100.00;101116.97;5287230;28;20024;-80
2022/01/31 05:57:56;;;;;;;14.10;2.40;;;;;;;6.43;100.00;101112.53;5287120;28;20024;-80
2022/01/31 06:00:27;;;;;;;19.10;2.20;;;;;;;6.41;100.00;101109.97;5269001;28;20467;-80
2022/01/31 06:02:58;;;;;;;24.23;2.28;;;;;;;6.45;100.00;101106.06;5269148;28;20433;-80
2022/01/31 06:05:29;;;;;;;15.25;2.67;;;;;;;6.42;100.00;101114.31;5287105;28;20083;-80
2022/01/31 06:08:00;;;;;;;18.90;3.30;;;;;;;6.43;100.00;101105.38;5286671;28;20020;-81
2022/01/31 06:10:32;;;;;;;20.90;2.60;;;;;;;6.46;100.00;101117.56;5286674;28;20030;-80
2022/01/31 06:13:03;;;;;;;17.45;2.30;;;;;;;6.40;100.00;101105.63;5287001;28;20027;-82
2022/01/31 06:15:33;;;;;;;19.33;2.33;;;;;;;6.40;100.00;101080.78;5267771;28;20061;-82
2022/01/31 06:18:03;;;;;;;18.60;3.00;;;;;;;6.41;100.00;101114.44;5250527;28;20471;-83
2022/01/31 06:20:34;;;;;;;15.30;2.17;;;;;;;6.37;100.00;101121.84;5267138;28;20051;-84
2022/01/31 06:23:05;;;;;;;14.13;2.58;;;;;;;6.37;100.00;101108.53;5285358;28;20088;-82
2022/01/31 06:25:35;;;;;;;12.73;2.60;;;;;;;6.41;100.00;101123.28;5247068;28;20142;-82
2022/01/31 06:28:07;;;;;;;12.05;2.72;;;;;;;6.43;100.00;101128.50;5281866;28;20050;-80
2022/01/31 06:30:37;;;;;;;18.85;3.13;;;;;;;6.40;100.00;101128.75;5266354;28;20035;-81
2022/01/31 06:33:07;;;;;;;16.95;3.20;;;;;;;6.38;100.00;101112.91;5286030;28;20055;-80
2022/01/31 06:35:38;;;;;;;20.35;3.17;;;;;;;6.37;100.00;101113.88;5286924;28;20234;-78
2022/01/31 06:38:08;;;;;;;15.77;2.28;;;;;;;6.37;100.00;101116.53;5272045;28;20118;-78
2022/01/31 06:40:40;;;;;;;14.65;1.90;;;;;;;6.30;100.00;101104.72;5289116;28;20015;-78
2022/01/31 06:43:10;;;;;;;18.33;3.20;;;;;;;6.21;100.00;101134.81;5289032;28;20023;-78
2022/01/31 06:45:40;;;;;;;17.67;2.40;;;;;;;6.08;100.00;101123.53;5288539;28;20115;-80
2022/01/31 06:48:11;;;;;;;19.75;2.60;;;;;;;6.03;100.00;101129.25;5249292;28;20073;-78
2022/01/31 06:50:41;;;;;;;22.63;2.50;;;;;;;6.05;100.00;101140.59;5285345;28;20059;-77
2022/01/31 06:53:13;;;;;;;17.17;2.70;;;;;;;6.00;100.00;101126.84;5289680;28;20019;-78
2022/01/31 06:55:43;;;;;;;20.10;2.20;;;;;;;6.01;100.00;101109.03;5287290;28;20051;-80
2022/01/31 06:58:14;;;;;;;14.07;2.33;;;;;;;6.03;100.00;101120.41;5285950;28;20060;-81
2022/01/31 07:00:44;;;;;;;20.67;1.98;;;;;;;6.00;100.00;101131.31;5285458;28;20058;-80
2022/01/31 07:03:15;;;;;;;19.27;2.63;;;;;;;5.98;100.00;101136.78;5267596;28;20133;-80
2022/01/31 07:05:46;;;;;;;12.70;1.52;;;;;;;5.96;100.00;101128.91;5285576;28;20053;-80
2022/01/31 07:08:17;;;;;;;20.40;2.80;;;;;;;6.00;100.00;101141.97;5271295;28;20043;-80
2022/01/31 07:10:57;;;;;;;27.80;2.60;;;;;;;6.01;100.00;101141.00;5289071;28;20047;-80
2022/01/31 07:13:50;;;;;;;18.08;2.45;;;;;;;6.06;100.00;101144.97;5287924;28;20024;-79
2022/01/31 07:16:21;;;;;;;13.60;2.17;;;;;;;6.13;100.00;101138.16;5268589;28;20030;-80
2022/01/31 07:18:55;;;;;;;23.50;2.88;;;;;;;6.17;100.00;101125.38;5266292;28;20023;-80
2022/01/31 07:21:33;;;;;;;15.10;1.80;;;;;;;6.18;100.00;101145.75;5270333;28;20459;-80
2022/01/31 07:24:18;;;;;;;12.07;2.08;;;;;;;6.21;100.00;101126.81;5260930;28;20012;-80
2022/01/31 07:26:49;;;;;;;7.57;1.50;;;;;;;6.27;100.00;101160.09;5287780;28;20076;-80
2022/01/31 07:29:21;;;;;;;22.00;2.67;;;;;;;6.27;100.00;101144.94;5271415;28;20035;-80
2022/01/31 07:31:52;;;;;;;13.52;1.80;;;;;;;6.32;100.00;101150.72;5269586;28;20035;-80
2022/01/31 07:34:24;;;;;;;20.98;2.10;;;;;;;6.31;100.00;101154.38;5269886;28;20110;-79
2022/01/31 07:36:55;;;;;;;12.65;2.13;;;;;;;6.32;100.00;101157.88;5291331;28;20071;-80
2022/01/31 07:39:26;;;;;;;17.27;2.15;;;;;;;6.31;100.00;101165.03;5272274;28;20122;-80
2022/01/31 07:41:57;;;;;;;21.77;3.83;;;;;;;6.18;100.00;101159.91;5288172;28;20180;-80
2022/01/31 07:44:27;;;;;;;20.35;2.88;;;;;;;5.97;100.00;101164.38;5271081;28;20110;-80
2022/01/31 07:46:58;;;;;;;12.68;3.00;;;;;;;5.90;100.00;101173.81;5270922;28;20035;-80
2022/01/31 07:49:28;;;;;;;19.50;4.32;;;;;;;5.85;100.00;101168.03;5269676;28;20172;-81
2022/01/31 07:52:00;;;;;;;18.27;2.63;;;;;;;5.83;100.00;101178.81;5288552;28;20024;-81
2022/01/31 07:54:30;;;;;;;16.00;2.20;;;;;;;5.88;100.00;101192.59;5275354;28;20111;-82
2022/01/31 07:57:01;;;;;;;9.20;1.88;;;;;;;5.87;100.00;101152.75;5288040;28;20122;-81
2022/01/31 07:59:31;;;;;;;25.38;2.88;;;;;;;5.98;100.00;101190.06;5288276;28;20031;-81
2022/01/31 08:02:02;;;;;;;18.83;2.65;;;;;;;6.00;100.00;101214.72;5252924;28;20152;-82
2022/01/31 08:04:33;;;;;;;12.93;1.88;;;;;;;6.01;100.00;101187.13;5287916;28;20028;-81
2022/01/31 08:07:03;;;;;;;19.58;2.88;;;;;;;6.06;100.00;101186.72;5287023;28;20031;-82
2022/01/31 08:09:34;;;;;;;17.95;3.08;;;;;;;6.05;100.00;101204.53;5288095;28;20110;-81
2022/01/31 08:12:05;;;;;;;18.33;2.65;;;;;;;6.06;100.00;101198.22;5252060;28;20019;-81
2022/01/31 08:14:36;;;;;;;22.38;2.63;;;;;;;6.11;100.00;101214.66;5288044;28;20115;-82
2022/01/31 08:17:07;;;;;;;15.50;2.65;;;;;;;6.12;100.00;101216.34;5287334;28;20045;-79
2022/01/31 08:19:37;;;;;;;19.95;2.85;;;;;;;6.10;100.00;101228.13;5291194;28;20038;-78
2022/01/31 08:22:09;;;;;;;13.45;2.00;;;;;;;6.14;100.00;101216.25;5291016;28;20036;-78
2022/01/31 08:24:40;;;;;;;18.38;2.38;;;;;;;6.18;100.00;101220.34;5275342;28;20028;-78
2022/01/31 08:27:11;;;;;;;17.35;2.65;;;;;;;6.19;100.00;101220.22;5286910;28;20027;-78
2022/01/31 08:29:41;;;;;;;15.02;2.47;;;;;;;6.16;100.00;101225.78;5287320;28;20556;-78
2022/01/31 08:37:49;;;;;;;20.10;2.63;;;;;;;6.09;100.00;101221.13;5286285;28;20045;-78
2022/01/31 08:40:19;;;;;;;19.15;2.75;;;;;;;6.12;100.00;101231.50;5267956;28;20031;-78
2022/01/31 08:42:50;;;;;;;16.55;2.05;;;;;;;6.10;100.00;101234.28;5286248;28;20163;-78
2022/01/31 08:45:20;;;;;;;18.30;2.13;;;;;;;6.13;100.00;101222.56;5286344;28;20034;-78
2022/01/31 08:47:51;;;;;;;13.13;2.00;;;;;;;6.16;100.00;101227.59;5268334;28;20012;-78
2022/01/31 08:50:21;;;;;;;22.08;3.25;;;;;;;6.21;100.00;101239.56;5268515;28;20020;-78
2022/01/31 08:52:51;;;;;;;15.85;2.35;;;;;;;6.20;100.00;101253.03;5268236;28;20538;-78
2022/01/31 08:55:22;;;;;;;15.98;2.38;;;;;;;6.28;100.00;101253.25;5286233;28;20715;-78
2022/01/31 08:57:55;;;;;;;21.98;2.40;;;;;;;6.22;100.00;101254.59;5279039;28;20467;-79
2022/01/31 09:00:33;;;;;;;20.75;2.58;;;;;;;6.21;100.00;101252.03;5264816;28;20028;-78
2022/01/31 09:03:21;;;;;;;21.50;2.28;;;;;;;6.18;100.00;101239.84;5269733;28;20035;-80
2022/01/31 09:05:51;;;;;;;17.38;2.65;;;;;;;6.14;100.00;101262.38;5284792;28;20120;-78
2022/01/31 09:08:22;;;;;;;20.20;2.50;;;;;;;6.16;100.00;101248.91;5285408;28;20011;-78
2022/01/31 09:10:52;;;;;;;13.68;2.08;;;;;;;6.15;100.00;101257.88;5285502;28;20543;-78
2022/01/31 09:13:23;;;;;;;16.77;2.10;;;;;;;6.18;100.00;101252.31;5250619;28;20027;-78
2022/01/31 09:15:54;;;;;;;19.75;2.78;;;;;;;6.26;100.00;101265.81;5267430;28;20114;-78
2022/01/31 09:18:24;;;;;;;21.33;2.95;;;;;;;6.31;100.00;101252.13;5267195;28;20039;-78
2022/01/31 09:20:57;;;;;;;16.65;2.22;;;;;;;6.36;100.00;101265.91;5285285;28;20061;-79
2022/01/31 09:23:28;;;;;;;20.70;2.38;;;;;;;6.34;100.00;101251.88;5279963;28;20099;-78
2022/01/31 09:25:59;;;;;;;18.35;1.92;;;;;;;6.33;100.00;101250.19;5276715;28;20023;-78
2022/01/31 09:28:29;;;;;;;19.38;3.45;;;;;;;6.44;100.00;101258.13;5285422;28;20027;-79
2022/01/31 09:31:00;;;;;;;23.08;3.63;;;;;;;6.53;100.00;101264.50;5263649;28;20030;-80
2022/01/31 09:33:30;;;;;;;13.45;2.88;;;;;;;6.73;100.00;101275.16;5285182;28;20023;-80
2022/01/31 09:36:01;;;;;;;16.98;2.60;;;;;;;6.63;100.00;101300.06;5267531;28;20368;-81
2022/01/31 09:38:31;;;;;;;13.30;2.03;;;;;;;6.26;100.00;101279.16;5250220;28;20055;-80
2022/01/31 09:41:02;;;;;;;11.82;2.58;;;;;;;6.05;100.00;101299.56;5284528;28;20135;-80
2022/01/31 09:44:06;;;;;;;16.33;2.78;;;;;;;6.01;100.00;101298.13;5267122;28;20057;-80
2022/01/31 09:49:22;;;;;;;13.48;2.33;;;;;;;6.07;100.00;101302.94;5284844;28;20398;-80
2022/01/31 09:51:53;;;;;;;13.40;2.80;;;;;;;6.18;100.00;101310.94;5250036;28;20077;-79
2022/01/31 09:54:25;;;;;;;18.52;2.33;;;;;;;6.22;100.00;101302.56;5249685;28;20062;-80
2022/01/31 09:56:57;;;;;;;20.77;3.58;;;;;;;6.30;100.00;101331.22;5273341;28;20076;-81
2022/01/31 09:59:27;;;;;;;23.20;2.67;;;;;;;6.33;100.00;101309.66;5274450;28;20053;-80
2022/01/31 10:01:59;;;;;;;16.45;3.78;;;;;;;6.33;100.00;101332.81;5295094;28;20024;-80
2022/01/31 10:04:34;;;;;;;21.88;3.42;;;;;;;6.42;100.00;101335.50;5290933;28;20023;-80
2022/01/31 10:07:05;;;;;;;;;;;;;;;6.49;100.00;101326.06;5286033;28;20486;-78
2022/01/31 10:09:35;;;;;;;15.05;2.67;;;;;;;6.43;100.00;101345.22;5284597;28;19987;-78
2022/01/31 10:12:12;;;;;;;16.00;3.35;;;;;;;6.36;100.00;101340.53;5266302;28;20020;-78
2022/01/31 10:17:37;;;;;;;27.05;3.72;;;;;;;6.38;100.00;101351.91;5273671;28;20031;-78
2022/01/31 10:20:29;;;;;;;17.38;2.75;;;;;;;6.45;100.00;101356.59;5285626;28;20028;-80
2022/01/31 10:23:39;;;;;;;17.65;2.97;;;;;;;6.65;100.00;101336.28;5284607;28;20052;-80
2022/01/31 10:26:26;;;;;;;32.50;3.72;;;;;;;6.82;100.00;101326.84;5280601;28;20059;-80
2022/01/31 10:29:09;;;;;;;18.08;3.70;;;;;;;6.78;100.00;101362.78;5287809;28;20483;-79
2022/01/31 10:32:01;;;;;;;26.15;4.97;;;;;;;6.84;100.00;101372.06;5284469;28;20020;-79
2022/01/31 10:34:37;;;;;;;21.00;2.40;;;;;;;6.74;100.00;101351.50;5285930;28;20018;-81
2022/01/31 10:37:13;;;;;;;20.58;2.60;;;;;;;6.79;100.00;101364.47;5287016;28;20031;-80
2022/01/31 10:45:35;;;;;;;13.73;2.40;;;;;;;7.13;100.00;101401.59;5293544;28;20019;-82
2022/01/31 10:57:43;;;;;;;18.95;2.35;;;;;;;6.18;100.00;101454.78;5292778;28;20066;-80
2022/01/31 11:00:16;;;;;;;14.15;3.22;;;;;;;6.08;100.00;101438.69;5282033;28;20044;-80
2022/01/31 11:02:46;;;;;;;20.58;3.20;;;;;;;5.76;100.00;101437.69;5292074;28;20124;-80
2022/01/31 11:05:35;;;;;;;15.95;2.72;;;;;;;5.61;100.00;101427.28;5291151;28;20516;-81
2022/01/31 11:08:23;;;;;;;18.52;2.92;;;;;;;5.60;100.00;101433.56;5291577;28;20110;-80
2022/01/31 11:11:12;;;;;;;18.85;3.10;;;;;;;5.57;100.00;101438.28;5279122;28;20099;-82
2022/01/31 11:13:42;;;;;;;22.83;2.75;;;;;;;5.62;100.00;101450.28;5291685;28;20121;-80
2022/01/31 11:16:13;;;;;;;21.90;3.78;;;;;;;5.69;100.00;101448.00;5273579;28;20506;-80
2022/01/31 11:18:44;;;;;;;27.63;3.80;;;;;;;5.76;100.00;101419.91;5291343;28;20114;-81
2022/01/31 11:21:17;;;;;;;48.10;13.77;;;;;;;5.77;100.00;101428.72;5273701;28;20088;-80
2022/01/31 11:23:49;;;;;;;24.00;3.97;;;;;;;5.74;100.00;101434.31;5270833;28;20111;-80
2022/01/31 11:26:22;;;;;;;23.08;3.38;;;;;;;5.73;100.00;101433.47;5268334;28;20030;-80
2022/01/31 11:28:54;;;;;;;33.35;4.05;;;;;;;5.79;100.00;101419.66;5292119;28;20035;-80
2022/01/31 11:31:26;;;;;;;30.50;4.78;;;;;;;5.84;100.00;101437.94;5273357;28;20067;-80
2022/01/31 11:33:58;;;;;;;31.63;4.45;;;;;;;5.88;100.00;101434.09;5291650;28;20471;-81
2022/01/31 11:36:29;;;;;;;22.00;3.22;;;;;;;5.86;100.00;101442.16;5274611;28;20151;-81
2022/01/31 11:39:01;;;;;;;25.48;3.25;;;;;;;5.80;100.00;101450.66;5294179;28;20024;-81
2022/01/31 11:41:33;;;;;;;22.77;4.40;;;;;;;5.73;100.00;101441.47;5253999;28;20074;-81
2022/01/31 11:44:13;;;;;;;19.08;2.50;;;;;;;5.75;100.00;101438.66;5274443;28;20035;-81
2022/01/31 11:46:44;;;;;;;22.73;4.28;;;;;;;5.81;100.00;101436.34;5294296;28;20514;-81
2022/01/31 11:49:15;;;;;;;23.88;4.40;;;;;;;5.85;100.00;101442.31;5274532;28;20022;-81
2022/01/31 11:52:05;;;;;;;14.70;3.38;;;;;;;5.85;100.00;101402.34;5272679;28;20059;-81
2022/01/31 11:54:45;;;;;;;18.45;2.88;;;;;;;5.88;100.00;101448.25;5292084;28;20049;-81
2022/01/31 11:57:37;;;;;;;24.42;3.65;;;;;;;5.95;100.00;101428.16;5257743;28;20116;-82
2022/01/31 12:00:11;;;;;;;16.25;3.05;;;;;;;6.05;100.00;101454.91;5290531;28;20189;-80
2022/01/31 12:02:45;;;;;;;22.55;3.67;;;;;;;6.12;100.00;101455.25;5282874;28;20023;-80
2022/01/31 12:05:21;;;;;;;20.65;3.60;;;;;;;6.12;100.00;101449.94;5272180;28;20432;-80
2022/01/31 12:08:13;;;;;;;29.67;3.53;;;;;;;6.12;100.00;101457.94;5273257;28;20020;-81
2022/01/31 12:11:02;;;;;;;27.40;3.55;;;;;;;6.14;100.00;101464.00;5271136;28;20054;-81